Time;durP1;ratioP1;P1;durP2;ratioP2;P2;SDS_P1;SDS_P2;PMS_P1;PMS_P2;Temp;Humidity;BMP_temperature;BMP_pressure;BME280_temperature;BME280_humidity;BME280_pressure;Samples;Min_cycle;Max_cycle;Signal;HPM_P1;HPM_P2
2024/02/18 00:01:57;;;;;;;1.10;0.80;;;20.40;53.40;;;;;;5037431;28;20496;-65
2024/02/18 00:04:23;;;;;;;1.23;0.90;;;20.40;53.30;;;;;;5039298;28;20021;-64
2024/02/18 00:06:48;;;;;;;0.98;0.80;;;20.40;53.30;;;;;;5039460;28;20108;-64
2024/02/18 00:09:14;;;;;;;1.27;0.73;;;20.40;53.40;;;;;;5036848;28;20025;-63
2024/02/18 00:11:40;;;;;;;1.30;0.90;;;20.40;53.40;;;;;;5039734;28;20496;-63
2024/02/18 00:14:05;;;;;;;0.90;0.80;;;20.40;53.40;;;;;;5039355;28;20044;-63
2024/02/18 00:16:31;;;;;;;1.60;1.00;;;20.40;53.40;;;;;;5038117;28;20047;-64
2024/02/18 00:18:56;;;;;;;0.80;0.77;;;20.40;53.40;;;;;;5036836;28;20036;-64
2024/02/18 00:21:22;;;;;;;1.33;0.90;;;20.40;53.40;;;;;;5040855;28;20029;-63
2024/02/18 00:23:48;;;;;;;0.95;0.80;;;20.40;53.40;;;;;;5038826;28;20029;-63
2024/02/18 00:26:14;;;;;;;1.00;0.80;;;20.40;53.40;;;;;;5039400;28;20043;-63
2024/02/18 00:28:39;;;;;;;1.10;0.80;;;20.40;53.40;;;;;;5034501;28;20043;-64
2024/02/18 00:31:05;;;;;;;1.40;0.80;;;20.40;53.40;;;;;;5038762;28;20083;-64
2024/02/18 00:33:31;;;;;;;1.08;0.80;;;20.40;53.40;;;;;;5035545;28;20500;-65
2024/02/18 00:35:56;;;;;;;0.85;0.77;;;20.40;53.40;;;;;;5038370;28;20031;-63
2024/02/18 00:38:22;;;;;;;1.55;1.00;;;20.40;53.40;;;;;;5036774;28;20025;-63
2024/02/18 00:40:48;;;;;;;0.95;0.77;;;20.40;53.40;;;;;;5038836;28;20029;-63
2024/02/18 00:43:13;;;;;;;1.83;1.00;;;20.40;53.40;;;;;;5037860;28;20033;-64
2024/02/18 00:45:39;;;;;;;1.40;1.00;;;20.40;53.40;;;;;;5038341;28;20110;-63
2024/02/18 00:48:05;;;;;;;2.40;1.10;;;20.40;53.40;;;;;;5035960;28;20071;-63
2024/02/18 00:50:31;;;;;;;1.70;1.13;;;20.40;53.40;;;;;;5039534;28;20086;-64
2024/02/18 00:52:56;;;;;;;1.67;0.80;;;20.40;53.40;;;;;;5035237;28;20025;-63
2024/02/18 00:55:22;;;;;;;1.38;0.88;;;20.40;53.40;;;;;;5038098;28;20109;-63
2024/02/18 00:57:48;;;;;;;1.30;0.80;;;20.40;53.40;;;;;;5039155;28;20049;-67
2024/02/18 01:00:13;;;;;;;1.33;0.80;;;20.40;53.40;;;;;;5039351;28;20025;-67
2024/02/18 01:02:39;;;;;;;1.15;0.80;;;20.40;53.40;;;;;;5035515;28;20029;-67
2024/02/18 01:05:05;;;;;;;1.20;0.90;;;20.40;53.40;;;;;;5038725;28;20029;-67
2024/02/18 01:07:30;;;;;;;1.20;0.80;;;20.40;53.40;;;;;;5036933;28;20056;-67
2024/02/18 01:09:56;;;;;;;1.40;0.90;;;20.40;53.40;;;;;;5037424;28;20059;-67
2024/02/18 01:12:21;;;;;;;1.42;0.82;;;20.40;53.50;;;;;;5038883;28;20029;-67
2024/02/18 01:14:47;;;;;;;1.00;0.88;;;20.40;53.50;;;;;;5038274;28;20025;-67
2024/02/18 01:17:13;;;;;;;1.00;0.82;;;20.40;53.50;;;;;;5037677;28;20485;-67
2024/02/18 01:19:38;;;;;;;1.05;0.80;;;20.40;53.50;;;;;;5036685;28;20048;-66
2024/02/18 01:22:04;;;;;;;1.27;0.90;;;20.30;53.40;;;;;;5038953;28;20041;-66
2024/02/18 01:24:29;;;;;;;1.38;0.90;;;20.30;53.40;;;;;;5038646;28;20449;-67
2024/02/18 01:26:55;;;;;;;1.15;0.80;;;20.40;53.50;;;;;;5038888;28;20026;-67
2024/02/18 01:29:22;;;;;;;1.30;0.90;;;20.40;53.50;;;;;;5038073;28;20021;-67
2024/02/18 01:31:48;;;;;;;1.00;0.70;;;20.30;53.40;;;;;;5038017;28;20029;-67
2024/02/18 01:34:14;;;;;;;1.48;0.90;;;20.30;53.40;;;;;;5030735;28;20400;-67
2024/02/18 01:36:40;;;;;;;1.23;0.90;;;20.30;53.40;;;;;;5035242;28;20512;-67
2024/02/18 01:39:06;;;;;;;0.90;0.80;;;20.40;53.50;;;;;;5037863;28;20029;-67
2024/02/18 01:41:33;;;;;;;1.02;0.88;;;20.30;53.40;;;;;;5037531;28;20070;-67
2024/02/18 01:43:58;;;;;;;1.80;0.90;;;20.30;53.50;;;;;;5035289;28;20029;-67
2024/02/18 01:46:24;;;;;;;1.27;0.88;;;20.30;53.40;;;;;;5037625;28;20036;-67
2024/02/18 01:48:51;;;;;;;1.23;0.80;;;20.40;53.50;;;;;;5034271;28;20030;-65
2024/02/18 01:51:17;;;;;;;1.73;0.98;;;20.40;53.50;;;;;;5036684;28;20064;-65
2024/02/18 01:53:43;;;;;;;1.55;1.05;;;20.30;53.40;;;;;;5036378;28;20103;-63
2024/02/18 01:56:11;;;;;;;1.25;1.00;;;20.30;53.40;;;;;;5037826;28;20017;-63
2024/02/18 01:58:37;;;;;;;2.13;1.00;;;20.30;54.00;;;;;;5036637;28;20116;-64
2024/02/18 02:01:03;;;;;;;1.50;0.90;;;20.30;53.50;;;;;;5038243;28;20037;-64
2024/02/18 02:03:29;;;;;;;1.23;0.82;;;20.30;53.50;;;;;;5035025;28;20023;-63
2024/02/18 02:05:56;;;;;;;1.52;0.90;;;20.30;53.50;;;;;;5036932;28;20044;-63
2024/02/18 02:08:22;;;;;;;0.95;0.80;;;20.30;53.50;;;;;;5036428;28;20033;-67
2024/02/18 02:10:50;;;;;;;1.33;0.80;;;20.30;53.50;;;;;;5037574;28;20503;-67
2024/02/18 02:13:15;;;;;;;1.52;0.90;;;20.30;53.50;;;;;;5039124;28;20453;-67
2024/02/18 02:15:41;;;;;;;1.40;0.93;;;20.30;53.50;;;;;;5038282;28;20029;-67
2024/02/18 02:18:07;;;;;;;1.38;0.90;;;20.30;53.50;;;;;;5035336;28;23628;-67
2024/02/18 02:20:32;;;;;;;1.45;0.90;;;20.30;53.50;;;;;;5037055;28;20044;-67
2024/02/18 02:22:58;;;;;;;1.88;1.00;;;20.30;53.50;;;;;;5040097;28;20040;-67
2024/02/18 02:25:24;;;;;;;1.40;0.90;;;20.30;53.50;;;;;;5041151;28;20029;-67
2024/02/18 02:28:02;;;;;;;1.73;1.00;;;20.30;53.50;;;;;;5041270;28;20080;-67
2024/02/18 02:30:29;;;;;;;1.63;1.13;;;20.30;54.00;;;;;;5037318;28;20056;-67
2024/02/18 02:32:55;;;;;;;1.13;0.90;;;20.30;53.50;;;;;;5037219;28;20095;-67
2024/02/18 02:35:21;;;;;;;1.40;0.98;;;20.30;53.50;;;;;;5041228;28;20160;-67
2024/02/18 02:37:47;;;;;;;1.13;0.80;;;20.30;53.50;;;;;;5041483;28;20037;-67
2024/02/18 02:40:13;;;;;;;0.98;0.77;;;20.30;53.50;;;;;;5037730;28;20478;-67
2024/02/18 02:42:39;;;;;;;1.33;0.95;;;20.30;53.50;;;;;;5038067;28;20474;-67
2024/02/18 02:45:05;;;;;;;1.65;0.90;;;20.30;53.50;;;;;;5040742;28;20037;-67
2024/02/18 02:47:30;;;;;;;1.15;0.80;;;20.30;53.50;;;;;;5039891;28;20045;-67
2024/02/18 02:49:56;;;;;;;1.10;0.90;;;20.30;53.50;;;;;;5038529;28;20386;-67
2024/02/18 02:52:22;;;;;;;1.25;0.90;;;20.20;53.50;;;;;;5042924;28;20341;-67
2024/02/18 02:54:47;;;;;;;1.48;0.90;;;20.20;53.50;;;;;;5038809;28;20413;-67
2024/02/18 02:57:13;;;;;;;1.85;0.90;;;20.30;53.50;;;;;;5039875;28;20040;-67
2024/02/18 02:59:39;;;;;;;1.20;0.88;;;20.30;53.50;;;;;;5041589;28;20052;-67
2024/02/18 03:02:05;;;;;;;1.98;1.00;;;20.30;53.50;;;;;;5040811;28;20024;-67
2024/02/18 03:04:30;;;;;;;0.98;0.80;;;20.30;53.50;;;;;;5038926;28;20056;-67
2024/02/18 03:06:56;;;;;;;0.98;0.80;;;20.30;53.50;;;;;;5040515;28;20552;-67
2024/02/18 03:09:21;;;;;;;1.30;0.80;;;20.20;53.50;;;;;;5039912;28;20032;-63
2024/02/18 03:11:47;;;;;;;1.20;0.90;;;20.30;53.50;;;;;;5037385;28;20429;-64
2024/02/18 03:14:13;;;;;;;1.00;0.73;;;20.20;53.50;;;;;;5038429;28;20067;-64
2024/02/18 03:16:38;;;;;;;1.10;0.80;;;20.20;53.50;;;;;;5039657;28;20028;-63
2024/02/18 03:19:04;;;;;;;1.58;0.90;;;20.20;53.50;;;;;;5038157;28;20025;-63
2024/02/18 03:21:30;;;;;;;1.38;0.90;;;20.20;53.50;;;;;;5072054;28;20036;-64
2024/02/18 03:23:55;;;;;;;1.35;0.90;;;20.20;53.50;;;;;;5054622;28;20390;-65
2024/02/18 03:26:26;;;;;;;1.20;0.80;;;20.20;53.50;;;;;;5039361;28;20087;-65
2024/02/18 03:28:52;;;;;;;1.77;1.00;;;20.20;53.50;;;;;;5041028;28;20031;-63
2024/02/18 03:31:18;;;;;;;1.50;0.90;;;20.20;53.50;;;;;;5040966;28;20049;-64
2024/02/18 03:33:44;;;;;;;1.20;0.82;;;20.20;53.50;;;;;;5037333;28;20014;-63
2024/02/18 03:36:10;;;;;;;1.25;0.85;;;20.20;53.50;;;;;;5041618;28;20485;-64
2024/02/18 03:38:35;;;;;;;1.65;0.95;;;20.20;53.50;;;;;;5040752;28;20386;-63
2024/02/18 03:41:05;;;;;;;1.52;0.90;;;20.20;53.50;;;;;;5038475;28;20041;-63
2024/02/18 03:43:31;;;;;;;0.93;0.77;;;20.20;53.50;;;;;;5039223;28;20386;-63
2024/02/18 03:45:57;;;;;;;1.52;0.93;;;20.20;53.50;;;;;;5039295;28;20038;-62
2024/02/18 03:48:23;;;;;;;1.30;0.90;;;20.20;53.60;;;;;;5040314;28;20096;-63
2024/02/18 03:50:49;;;;;;;1.38;0.88;;;20.30;53.60;;;;;;5037402;28;20028;-63
2024/02/18 03:53:14;;;;;;;0.98;0.80;;;20.20;53.50;;;;;;5038699;28;20029;-63
2024/02/18 03:55:40;;;;;;;1.20;0.90;;;20.20;53.60;;;;;;5038600;28;20540;-63
2024/02/18 03:58:05;;;;;;;0.95;0.80;;;20.20;53.50;;;;;;5039090;28;20033;-64
2024/02/18 04:00:31;;;;;;;1.63;0.95;;;20.20;53.50;;;;;;5022512;28;20034;-64
2024/02/18 04:02:56;;;;;;;1.73;1.00;;;20.20;53.50;;;;;;5041103;28;20037;-63
2024/02/18 04:05:22;;;;;;;1.10;0.80;;;20.20;53.50;;;;;;5039855;28;20044;-63
2024/02/18 04:07:48;;;;;;;1.10;0.90;;;20.20;53.50;;;;;;5039091;28;20437;-64
2024/02/18 04:10:13;;;;;;;1.73;1.10;;;20.20;53.50;;;;;;5039806;28;20024;-67
2024/02/18 04:12:39;;;;;;;1.00;0.90;;;20.20;53.50;;;;;;5039207;28;20112;-67
2024/02/18 04:15:05;;;;;;;1.25;0.80;;;20.20;53.50;;;;;;5039154;28;20028;-67
2024/02/18 04:17:31;;;;;;;1.10;0.88;;;20.20;53.50;;;;;;5038583;28;20486;-67
2024/02/18 04:19:56;;;;;;;1.73;0.90;;;20.20;53.50;;;;;;5038274;28;20121;-63
2024/02/18 04:22:22;;;;;;;1.00;0.90;;;20.20;53.50;;;;;;5039006;28;20500;-64
2024/02/18 04:24:48;;;;;;;1.10;0.90;;;20.20;53.50;;;;;;5038176;28;20025;-63
2024/02/18 04:27:13;;;;;;;1.52;0.90;;;20.20;53.50;;;;;;5038096;28;20029;-64
2024/02/18 04:29:39;;;;;;;1.50;0.90;;;20.20;53.60;;;;;;5035195;28;20503;-67
2024/02/18 04:32:06;;;;;;;1.30;1.00;;;20.20;53.50;;;;;;5038160;28;20049;-67
2024/02/18 04:34:32;;;;;;;1.17;0.77;;;20.20;53.50;;;;;;5037749;28;20056;-67
2024/02/18 04:36:58;;;;;;;1.48;0.90;;;20.20;53.50;;;;;;5038843;28;20061;-67
2024/02/18 04:39:23;;;;;;;1.13;0.93;;;20.20;53.50;;;;;;5039318;28;20032;-67
2024/02/18 04:41:49;;;;;;;1.65;0.90;;;20.20;54.10;;;;;;5038666;28;20025;-67
2024/02/18 04:44:15;;;;;;;1.25;1.00;;;20.10;53.50;;;;;;5036377;28;20032;-67
2024/02/18 04:46:41;;;;;;;1.25;0.95;;;20.20;53.50;;;;;;5039473;28;20029;-67
2024/02/18 04:49:07;;;;;;;1.27;1.00;;;20.20;53.60;;;;;;5038557;28;20078;-67
2024/02/18 04:51:32;;;;;;;1.38;0.95;;;20.20;53.60;;;;;;5035777;28;20033;-67
2024/02/18 04:53:58;;;;;;;1.35;0.90;;;20.20;53.60;;;;;;5036237;28;20018;-67
2024/02/18 04:56:24;;;;;;;1.30;0.90;;;20.10;53.50;;;;;;5037529;28;20021;-67
2024/02/18 04:58:49;;;;;;;0.80;0.70;;;20.10;53.50;;;;;;5038447;28;20021;-67
2024/02/18 05:01:15;;;;;;;1.30;0.90;;;20.10;53.50;;;;;;5038012;28;20923;-67
2024/02/18 05:03:41;;;;;;;1.40;0.90;;;20.10;53.50;;;;;;5038359;28;20029;-67
2024/02/18 05:06:10;;;;;;;1.30;0.80;;;20.10;53.50;;;;;;5037041;28;20580;-67
2024/02/18 05:08:36;;;;;;;1.10;0.80;;;20.10;53.50;;;;;;5034401;28;20029;-67
2024/02/18 05:11:03;;;;;;;1.10;0.90;;;20.10;54.00;;;;;;5037041;28;20025;-67
2024/02/18 05:13:29;;;;;;;1.05;0.80;;;20.10;53.50;;;;;;5038256;28;20376;-67
2024/02/18 05:15:56;;;;;;;1.10;0.90;;;20.10;53.50;;;;;;5036594;28;20029;-67
2024/02/18 05:18:22;;;;;;;1.30;0.98;;;20.10;53.50;;;;;;5036828;28;20143;-67
2024/02/18 05:20:47;;;;;;;1.02;0.82;;;20.10;53.50;;;;;;5035879;28;20504;-63
2024/02/18 05:23:13;;;;;;;1.00;0.80;;;20.10;53.50;;;;;;5035798;28;20347;-63
2024/02/18 05:25:39;;;;;;;1.30;0.90;;;20.10;53.60;;;;;;5034643;28;20059;-64
2024/02/18 05:28:08;;;;;;;1.02;0.77;;;20.10;53.60;;;;;;5038881;28;20065;-64
2024/02/18 05:30:34;;;;;;;1.13;0.82;;;20.10;53.50;;;;;;5040042;28;20111;-63
2024/02/18 05:32:59;;;;;;;1.38;0.90;;;20.10;53.60;;;;;;5038349;28;20912;-63
2024/02/18 05:35:25;;;;;;;1.60;0.93;;;20.10;53.60;;;;;;5035404;28;20029;-63
2024/02/18 05:37:51;;;;;;;0.98;0.73;;;20.10;53.60;;;;;;5037064;28;20029;-63
2024/02/18 05:40:17;;;;;;;0.95;0.85;;;20.10;53.60;;;;;;5036615;28;20056;-63
2024/02/18 05:42:43;;;;;;;0.88;0.80;;;20.10;53.60;;;;;;5039242;28;20493;-63
2024/02/18 05:45:09;;;;;;;1.08;0.80;;;20.10;53.60;;;;;;5037676;28;20053;-64
2024/02/18 05:47:34;;;;;;;1.00;0.80;;;20.10;53.60;;;;;;5037654;28;20044;-63
2024/02/18 05:50:00;;;;;;;1.13;0.80;;;20.10;53.60;;;;;;5034811;28;20032;-65
2024/02/18 05:52:26;;;;;;;1.08;0.90;;;20.10;53.60;;;;;;5038016;28;20032;-63
2024/02/18 05:54:51;;;;;;;1.25;0.90;;;20.10;53.60;;;;;;5037373;28;20108;-63
2024/02/18 05:57:17;;;;;;;1.00;0.80;;;20.10;53.60;;;;;;5041393;28;20039;-63
2024/02/18 05:59:44;;;;;;;1.17;0.90;;;20.10;53.60;;;;;;5042932;28;20025;-64
2024/02/18 06:02:09;;;;;;;1.40;0.90;;;20.10;53.60;;;;;;5042946;28;20028;-63
2024/02/18 06:04:35;;;;;;;1.40;0.90;;;20.10;54.10;;;;;;5040394;28;20021;-65
2024/02/18 06:07:01;;;;;;;1.20;0.80;;;20.10;53.60;;;;;;5041296;28;20160;-62
2024/02/18 06:09:26;;;;;;;1.83;0.90;;;20.10;53.60;;;;;;5041906;28;20106;-63
2024/02/18 06:11:52;;;;;;;1.40;0.90;;;20.10;53.60;;;;;;5042343;28;20607;-62
2024/02/18 06:14:18;;;;;;;1.25;0.85;;;20.10;53.60;;;;;;5041686;28;20025;-63
2024/02/18 06:16:44;;;;;;;0.93;0.82;;;20.10;53.60;;;;;;5041115;28;20831;-63
2024/02/18 06:19:10;;;;;;;0.80;0.70;;;20.10;54.10;;;;;;5043261;28;20025;-63
2024/02/18 06:21:35;;;;;;;1.52;0.90;;;20.00;53.50;;;;;;5041783;28;20048;-63
2024/02/18 06:24:01;;;;;;;1.02;0.80;;;20.00;53.50;;;;;;5040411;28;20025;-63
2024/02/18 06:26:27;;;;;;;1.25;0.90;;;20.00;53.50;;;;;;5042038;28;20056;-62
2024/02/18 06:28:54;;;;;;;1.20;0.90;;;20.00;53.50;;;;;;5041579;28;20026;-63
2024/02/18 06:31:20;;;;;;;1.58;0.98;;;20.00;53.50;;;;;;5042540;28;20060;-64
2024/02/18 06:33:48;;;;;;;1.13;0.80;;;20.10;53.60;;;;;;5038642;28;20069;-64
2024/02/18 06:36:15;;;;;;;0.90;0.80;;;20.00;53.50;;;;;;5036916;28;20120;-64
2024/02/18 06:38:44;;;;;;;0.95;0.85;;;20.10;54.10;;;;;;5039841;28;20282;-63
2024/02/18 06:41:10;;;;;;;1.10;0.77;;;20.00;53.50;;;;;;5072155;28;20116;-63
2024/02/18 06:43:36;;;;;;;1.65;1.00;;;20.00;53.50;;;;;;5039518;28;20582;-64
2024/02/18 06:46:03;;;;;;;1.20;0.80;;;20.00;53.60;;;;;;5040706;28;20112;-64
2024/02/18 06:48:29;;;;;;;0.75;0.70;;;20.00;53.60;;;;;;5038819;28;20522;-68
2024/02/18 06:50:55;;;;;;;1.40;1.00;;;20.00;53.60;;;;;;5038271;28;20029;-67
2024/02/18 06:53:21;;;;;;;1.10;0.80;;;20.00;53.60;;;;;;5040739;28;20102;-68
2024/02/18 06:55:47;;;;;;;1.30;1.00;;;20.00;53.60;;;;;;5039368;28;20053;-67
2024/02/18 06:58:14;;;;;;;1.48;0.90;;;20.00;53.60;;;;;;5054268;28;20338;-67
2024/02/18 07:00:40;;;;;;;1.02;0.80;;;20.00;53.60;;;;;;5039159;28;20033;-67
2024/02/18 07:03:06;;;;;;;1.17;0.90;;;20.00;53.60;;;;;;5039994;28;20029;-67
2024/02/18 07:05:32;;;;;;;0.85;0.70;;;20.00;53.60;;;;;;5037441;28;20444;-67
2024/02/18 07:07:59;;;;;;;1.27;0.82;;;20.00;53.60;;;;;;5038403;28;20481;-68
2024/02/18 07:10:25;;;;;;;1.48;1.00;;;20.00;53.60;;;;;;5039441;28;20021;-67
2024/02/18 07:12:51;;;;;;;1.42;0.85;;;20.00;53.60;;;;;;5053392;28;20093;-67
2024/02/18 07:15:16;;;;;;;1.30;1.00;;;20.00;53.60;;;;;;5040570;28;20466;-67
2024/02/18 07:17:42;;;;;;;1.58;0.88;;;20.00;53.60;;;;;;5041080;28;20512;-67
2024/02/18 07:20:09;;;;;;;1.20;0.80;;;20.00;53.60;;;;;;5037584;28;20504;-67
2024/02/18 07:22:34;;;;;;;1.20;0.85;;;20.00;53.60;;;;;;5038772;28;20072;-67
2024/02/18 07:25:00;;;;;;;1.00;0.80;;;20.00;53.60;;;;;;5041061;28;20426;-66
2024/02/18 07:27:26;;;;;;;1.25;1.00;;;20.00;53.60;;;;;;5039884;28;20025;-67
2024/02/18 07:29:52;;;;;;;1.27;0.77;;;19.90;53.50;;;;;;5040977;28;20028;-67
2024/02/18 07:32:18;;;;;;;0.90;0.70;;;20.00;53.60;;;;;;5041129;28;20029;-67
2024/02/18 07:34:43;;;;;;;1.23;0.93;;;20.00;53.60;;;;;;5037490;28;20103;-68
2024/02/18 07:37:10;;;;;;;0.90;0.80;;;19.90;53.60;;;;;;5037984;28;20053;-67
2024/02/18 07:39:36;;;;;;;1.30;0.90;;;20.00;53.60;;;;;;5039253;28;20025;-66
2024/02/18 07:42:02;;;;;;;0.70;0.70;;;19.90;53.50;;;;;;5040728;28;20021;-66
2024/02/18 07:44:28;;;;;;;1.05;0.80;;;19.90;53.60;;;;;;5054333;28;20079;-66
2024/02/18 07:46:54;;;;;;;1.20;0.90;;;19.90;53.60;;;;;;5038552;28;20066;-66
2024/02/18 07:49:22;;;;;;;1.30;0.80;;;19.90;53.60;;;;;;5040351;28;20025;-67
2024/02/18 07:51:48;;;;;;;1.00;0.77;;;19.90;53.60;;;;;;5037924;28;20092;-66
2024/02/18 07:54:14;;;;;;;1.20;0.82;;;19.90;53.60;;;;;;5038177;28;20428;-67
2024/02/18 07:56:47;;;;;;;0.88;0.80;;;19.90;53.60;;;;;;5038720;28;20100;-66
2024/02/18 07:59:13;;;;;;;1.25;0.90;;;19.90;53.60;;;;;;5040092;28;20029;-67
2024/02/18 08:01:39;;;;;;;1.17;0.80;;;19.90;53.60;;;;;;5038581;28;20029;-67
2024/02/18 08:04:05;;;;;;;1.23;0.90;;;19.90;53.60;;;;;;5037832;28;20436;-67
2024/02/18 08:06:32;;;;;;;1.20;0.80;;;19.90;53.60;;;;;;5036806;28;20030;-67
2024/02/18 08:08:58;;;;;;;1.33;0.85;;;19.90;54.10;;;;;;5038804;28;20021;-67
2024/02/18 08:11:24;;;;;;;0.93;0.80;;;19.90;53.60;;;;;;5038025;28;20021;-67
2024/02/18 08:13:50;;;;;;;0.93;0.70;;;19.90;53.60;;;;;;5039219;28;20032;-67
2024/02/18 08:16:16;;;;;;;0.68;0.63;;;19.90;53.60;;;;;;5038968;28;20029;-67
2024/02/18 08:18:41;;;;;;;1.02;0.90;;;19.90;53.60;;;;;;5039166;28;20338;-67
2024/02/18 08:21:09;;;;;;;1.15;0.82;;;19.90;53.60;;;;;;5036678;28;20020;-67
2024/02/18 08:23:34;;;;;;;0.80;0.80;;;19.90;53.60;;;;;;5038563;28;20060;-67
2024/02/18 08:26:00;;;;;;;1.30;0.90;;;19.90;53.60;;;;;;5038625;28;20056;-68
2024/02/18 08:28:27;;;;;;;1.33;0.80;;;19.90;53.60;;;;;;5036271;28;20037;-67
2024/02/18 08:30:53;;;;;;;1.67;1.08;;;19.90;53.60;;;;;;5037764;28;20335;-67
2024/02/18 08:33:18;;;;;;;1.20;0.90;;;19.90;53.60;;;;;;5038980;28;20040;-66
2024/02/18 08:35:44;;;;;;;1.15;0.88;;;19.90;53.70;;;;;;5036440;28;20104;-67
2024/02/18 08:38:10;;;;;;;1.33;0.98;;;19.90;53.70;;;;;;5037619;28;20025;-67
2024/02/18 08:40:36;;;;;;;0.73;0.70;;;19.90;53.70;;;;;;5038313;28;20037;-67
2024/02/18 08:43:01;;;;;;;1.17;0.80;;;19.90;53.70;;;;;;5037719;28;20026;-67
2024/02/18 08:45:27;;;;;;;0.98;0.77;;;19.90;53.70;;;;;;5039761;28;20537;-67
2024/02/18 08:47:54;;;;;;;1.67;0.73;;;19.90;53.70;;;;;;5070468;28;20373;-67
2024/02/18 08:50:19;;;;;;;1.20;0.80;;;19.80;53.60;;;;;;5041116;28;20025;-63
2024/02/18 08:52:45;;;;;;;1.05;0.75;;;19.80;53.60;;;;;;5036122;28;20026;-64
2024/02/18 08:55:10;;;;;;;0.88;0.77;;;19.80;53.60;;;;;;5039038;28;20428;-62
2024/02/18 08:57:36;;;;;;;1.45;1.00;;;19.90;53.70;;;;;;5040258;28;20053;-63
2024/02/18 09:00:02;;;;;;;0.95;0.80;;;19.90;53.70;;;;;;5036829;28;20094;-64
2024/02/18 09:02:28;;;;;;;1.17;0.90;;;19.90;53.70;;;;;;5037048;28;20533;-64
2024/02/18 09:04:54;;;;;;;1.15;0.90;;;19.80;53.60;;;;;;5038378;28;20108;-65
2024/02/18 09:07:19;;;;;;;1.33;0.90;;;19.90;53.70;;;;;;5036283;28;20083;-63
2024/02/18 09:09:45;;;;;;;1.02;0.70;;;19.90;53.70;;;;;;5036002;28;20029;-67
2024/02/18 09:12:10;;;;;;;1.10;0.80;;;19.90;53.70;;;;;;5038574;28;20497;-67
2024/02/18 09:14:36;;;;;;;1.10;0.80;;;19.80;53.60;;;;;;5035072;28;20041;-67
2024/02/18 09:17:02;;;;;;;1.10;0.93;;;19.90;53.70;;;;;;5035208;28;20096;-67
2024/02/18 09:19:27;;;;;;;0.93;0.82;;;19.80;53.60;;;;;;5037496;28;20040;-67
2024/02/18 09:21:53;;;;;;;1.05;0.95;;;19.80;53.70;;;;;;5034747;28;20033;-67
2024/02/18 09:24:19;;;;;;;0.73;0.70;;;19.90;54.20;;;;;;5037023;28;20021;-67
2024/02/18 09:26:45;;;;;;;1.85;0.80;;;19.80;53.70;;;;;;5035943;28;20033;-67
2024/02/18 09:29:11;;;;;;;1.30;0.90;;;19.80;53.70;;;;;;5036501;28;20346;-67
2024/02/18 09:31:37;;;;;;;0.88;0.80;;;19.80;53.70;;;;;;5035578;28;20044;-67
2024/02/18 09:34:03;;;;;;;0.98;0.77;;;19.80;53.70;;;;;;5037024;28;20029;-67
2024/02/18 09:36:29;;;;;;;0.80;0.80;;;19.80;53.70;;;;;;5035482;28;20057;-67
2024/02/18 09:38:55;;;;;;;0.88;0.80;;;19.80;53.70;;;;;;5037981;28;20061;-67
2024/02/18 09:41:23;;;;;;;1.00;0.90;;;19.80;53.70;;;;;;5039049;28;20502;-67
2024/02/18 09:43:51;;;;;;;0.82;0.75;;;19.80;53.70;;;;;;5037469;28;20482;-67
2024/02/18 09:46:20;;;;;;;1.17;0.80;;;19.80;53.70;;;;;;5036917;28;20568;-67
2024/02/18 09:48:46;;;;;;;0.90;0.73;;;19.80;53.80;;;;;;5038941;28;20116;-67
2024/02/18 09:51:15;;;;;;;0.80;0.75;;;19.80;53.80;;;;;;5035230;28;20039;-67
2024/02/18 09:53:41;;;;;;;1.40;0.87;;;19.80;53.80;;;;;;5034069;28;20042;-67
2024/02/18 09:56:07;;;;;;;1.17;0.90;;;19.80;53.80;;;;;;5036229;28;20494;-67
2024/02/18 09:58:33;;;;;;;1.02;0.80;;;19.80;53.80;;;;;;5038336;28;20485;-67
2024/02/18 10:01:01;;;;;;;1.23;0.90;;;19.80;53.80;;;;;;5035755;28;20512;-68
2024/02/18 10:03:27;;;;;;;1.23;0.90;;;19.80;53.80;;;;;;5035516;28;20028;-69
2024/02/18 10:05:54;;;;;;;1.15;0.80;;;19.80;54.30;;;;;;5036534;28;20045;-68
2024/02/18 10:08:20;;;;;;;0.75;0.70;;;19.80;53.80;;;;;;5028332;28;20128;-69
2024/02/18 10:10:46;;;;;;;1.17;0.80;;;19.80;53.80;;;;;;5038140;28;20099;-69
2024/02/18 10:13:12;;;;;;;1.15;0.90;;;19.80;53.80;;;;;;5036744;28;20017;-69
2024/02/18 10:15:38;;;;;;;1.10;0.80;;;19.80;53.80;;;;;;5037169;28;20497;-69
2024/02/18 10:18:07;;;;;;;1.10;0.90;;;19.80;53.80;;;;;;5037088;28;20059;-69
2024/02/18 10:20:33;;;;;;;1.27;0.88;;;19.80;53.80;;;;;;5037639;28;20056;-64
2024/02/18 10:22:58;;;;;;;0.70;0.70;;;19.80;53.80;;;;;;5035346;28;20064;-64
2024/02/18 10:25:24;;;;;;;1.73;1.00;;;19.80;53.80;;;;;;5037980;28;20385;-64
2024/02/18 10:27:56;;;;;;;0.98;0.80;;;19.80;53.80;;;;;;5038466;28;20045;-63
2024/02/18 10:30:21;;;;;;;1.05;0.85;;;19.80;53.80;;;;;;5038159;28;20100;-64
2024/02/18 10:32:47;;;;;;;0.95;0.80;;;19.90;53.80;;;;;;5039042;28;20446;-63
2024/02/18 10:35:12;;;;;;;0.98;0.80;;;19.80;53.80;;;;;;5037028;28;20076;-64
2024/02/18 10:37:40;;;;;;;1.10;0.80;;;19.90;53.80;;;;;;5036081;28;20025;-64
2024/02/18 10:40:25;;;;;;;1.58;0.80;;;19.80;54.10;;;;;;5038335;28;20087;-63
2024/02/18 10:42:51;;;;;;;1.20;0.80;;;19.90;53.80;;;;;;5037315;28;20094;-62
2024/02/18 10:45:18;;;;;;;0.90;0.80;;;19.90;54.30;;;;;;5040901;28;20184;-64
2024/02/18 10:47:51;;;;;;;1.05;0.85;;;19.90;53.80;;;;;;5041687;28;20040;-63
2024/02/18 10:50:17;;;;;;;1.10;0.90;;;19.80;53.80;;;;;;5041351;28;20622;-64
2024/02/18 10:52:46;;;;;;;1.13;0.90;;;19.90;53.80;;;;;;5039422;28;20048;-64
2024/02/18 10:55:21;;;;;;;1.52;0.90;;;19.80;53.80;;;;;;5039271;28;20033;-64
2024/02/18 10:58:08;;;;;;;1.10;0.90;;;19.80;53.80;;;;;;5038005;28;20037;-62
2024/02/18 11:00:40;;;;;;;1.67;0.90;;;19.90;53.80;;;;;;5040790;28;20087;-64
2024/02/18 11:03:16;;;;;;;1.13;0.85;;;19.80;53.80;;;;;;5041903;28;20033;-63
2024/02/18 11:05:44;;;;;;;1.40;0.98;;;19.90;53.80;;;;;;5042890;28;20092;-63
2024/02/18 11:08:10;;;;;;;1.30;0.77;;;19.90;53.80;;;;;;5039666;28;20037;-63
2024/02/18 11:10:37;;;;;;;0.95;0.80;;;19.90;53.80;;;;;;5041372;28;20162;-63
2024/02/18 11:13:07;;;;;;;1.05;0.80;;;19.90;53.80;;;;;;5042814;28;20555;-63
2024/02/18 11:15:35;;;;;;;1.00;0.80;;;19.90;53.80;;;;;;5043289;28;20486;-64
2024/02/18 11:18:02;;;;;;;1.30;0.90;;;19.90;53.80;;;;;;5041150;28;20478;-63
2024/02/18 11:20:28;;;;;;;0.85;0.80;;;19.90;53.80;;;;;;5041567;28;20029;-62
2024/02/18 11:22:54;;;;;;;0.73;0.73;;;19.90;53.80;;;;;;5038825;28;20478;-64
2024/02/18 11:25:22;;;;;;;1.13;0.90;;;19.90;53.80;;;;;;5040183;28;20057;-63
2024/02/18 11:27:48;;;;;;;0.88;0.77;;;19.90;53.80;;;;;;5039819;28;20036;-62
2024/02/18 11:30:15;;;;;;;1.83;0.90;;;19.90;53.80;;;;;;5042453;28;20033;-63
2024/02/18 11:32:41;;;;;;;1.20;1.00;;;19.90;53.80;;;;;;5040530;28;20025;-64
2024/02/18 11:35:11;;;;;;;0.90;0.80;;;19.90;53.80;;;;;;5040592;28;20104;-64
2024/02/18 11:37:38;;;;;;;1.25;0.90;;;19.90;53.80;;;;;;5039800;28;20072;-64
2024/02/18 11:40:14;;;;;;;1.00;0.90;;;19.90;53.80;;;;;;5040950;28;20105;-63
2024/02/18 11:42:41;;;;;;;0.88;0.88;;;19.90;53.80;;;;;;5034828;28;20025;-63
2024/02/18 11:45:19;;;;;;;1.10;0.90;;;19.90;53.80;;;;;;5037122;28;20029;-63
2024/02/18 11:47:46;;;;;;;0.80;0.80;;;19.90;53.80;;;;;;5040916;28;20079;-64
2024/02/18 11:50:12;;;;;;;1.00;0.90;;;19.90;53.80;;;;;;5040835;28;20084;-64
2024/02/18 11:52:40;;;;;;;1.05;0.80;;;19.90;53.80;;;;;;5039448;28;20029;-64
2024/02/18 11:55:22;;;;;;;1.08;0.80;;;19.90;53.80;;;;;;5036801;28;20052;-63
2024/02/18 11:57:48;;;;;;;1.20;1.00;;;19.90;53.80;;;;;;5039949;28;20500;-63
2024/02/18 12:00:18;;;;;;;0.93;0.75;;;19.90;53.80;;;;;;5044139;28;20094;-64
2024/02/18 12:02:54;;;;;;;1.20;0.90;;;19.90;53.70;;;;;;5038446;28;20029;-63
2024/02/18 12:05:22;;;;;;;1.30;1.00;;;19.90;53.80;;;;;;5041330;28;20040;-64
2024/02/18 12:07:48;;;;;;;1.48;0.90;;;20.00;53.80;;;;;;5039187;28;20030;-63
2024/02/18 12:10:15;;;;;;;0.95;0.80;;;19.90;53.80;;;;;;5039580;28;20040;-64
2024/02/18 12:12:41;;;;;;;1.63;1.02;;;19.90;53.80;;;;;;5041075;28;20017;-63
2024/02/18 12:15:07;;;;;;;1.80;1.20;;;19.90;53.80;;;;;;5040638;28;20025;-63
2024/02/18 12:17:33;;;;;;;2.03;1.33;;;19.90;53.80;;;;;;5040196;28;20071;-64
2024/02/18 12:19:59;;;;;;;1.83;1.30;;;19.90;53.80;;;;;;5042635;28;20083;-69
2024/02/18 12:22:28;;;;;;;2.17;1.30;;;19.90;53.80;;;;;;5037688;28;20917;-69
2024/02/18 12:24:58;;;;;;;2.78;1.40;;;19.90;53.80;;;;;;5037365;28;20032;-68
2024/02/18 12:27:24;;;;;;;2.35;1.67;;;20.00;53.80;;;;;;5038735;28;20477;-68
2024/02/18 12:29:51;;;;;;;3.05;1.40;;;19.90;53.80;;;;;;5039754;28;20032;-69
2024/02/18 12:32:18;;;;;;;3.55;1.90;;;20.00;53.80;;;;;;5034820;28;20576;-69
2024/02/18 12:34:46;;;;;;;3.50;1.83;;;20.00;53.80;;;;;;5039744;28;20025;-69
2024/02/18 12:37:12;;;;;;;3.92;2.08;;;19.90;53.80;;;;;;5038097;28;20025;-70
2024/02/18 12:39:38;;;;;;;3.70;2.10;;;19.90;53.80;;;;;;5036067;28;20033;-68
2024/02/18 12:42:05;;;;;;;4.07;2.33;;;20.00;53.80;;;;;;5037514;28;20034;-63
2024/02/18 12:44:32;;;;;;;3.45;2.13;;;19.90;53.80;;;;;;5039164;28;20098;-63